createdAt,value
2023-01-27T00:01:35.892Z,0.49
2023-01-27T00:04:05.546Z,0.51
2023-01-27T00:06:36.833Z,0.52
2023-01-27T00:09:05.398Z,0.53
2023-01-27T00:11:51.276Z,0.53
2023-01-27T00:14:19.921Z,0.52
2023-01-27T00:16:48.407Z,0.52
2023-01-27T00:19:19.832Z,0.54
2023-01-27T00:22:05.715Z,0.53
2023-01-27T00:24:37.336Z,0.52
2023-01-27T00:27:08.903Z,0.49
2023-01-27T00:29:40.859Z,0.48
2023-01-27T00:32:27.010Z,0.49
2023-01-27T00:34:56.618Z,0.50
2023-01-27T00:37:25.245Z,0.51
2023-01-27T00:39:53.804Z,0.49
2023-01-27T00:42:22.377Z,0.45
2023-01-27T00:45:05.427Z,0.47
2023-01-27T00:47:33.899Z,0.45
2023-01-27T00:50:03.482Z,0.48
2023-01-27T00:52:32.076Z,0.48
2023-01-27T00:55:00.615Z,0.48
2023-01-27T00:57:29.203Z,0.48
2023-01-27T00:59:59.728Z,0.48
2023-01-27T01:02:28.518Z,0.47
2023-01-27T01:04:57.075Z,0.47
2023-01-27T01:07:26.741Z,0.47
2023-01-27T01:09:56.211Z,0.46
2023-01-27T01:12:24.613Z,0.48
2023-01-27T01:14:53.099Z,0.50
2023-01-27T01:17:21.696Z,0.51
2023-01-27T01:19:50.532Z,0.52
2023-01-27T01:22:19.091Z,0.55
2023-01-27T01:24:48.715Z,0.56
2023-01-27T01:27:17.327Z,0.58
2023-01-27T01:29:45.926Z,0.61
2023-01-27T01:32:14.679Z,0.62
2023-01-27T01:34:44.159Z,0.66
2023-01-27T01:37:15.772Z,0.66
2023-01-27T01:39:44.466Z,0.67
2023-01-27T01:42:14.038Z,0.68
2023-01-27T01:44:45.747Z,0.70
2023-01-27T01:47:17.682Z,0.71
2023-01-27T01:49:48.136Z,0.71
2023-01-27T01:52:21.965Z,0.72
2023-01-27T01:54:54.701Z,0.73
2023-01-27T01:57:32.907Z,0.73
2023-01-27T02:00:07.753Z,0.75
2023-01-27T02:02:49.583Z,0.75
2023-01-27T02:05:24.480Z,0.75
2023-01-27T02:07:59.812Z,0.75
2023-01-27T02:10:28.447Z,0.77
2023-01-27T02:12:58.000Z,0.78
2023-01-27T02:15:26.739Z,0.79
2023-01-27T02:17:55.260Z,0.80
2023-01-27T02:20:32.046Z,0.80
2023-01-27T02:23:11.721Z,0.80
2023-01-27T02:25:53.998Z,0.81
2023-01-27T02:28:22.676Z,0.83
2023-01-27T02:30:51.304Z,0.83
2023-01-27T02:33:19.789Z,0.84
2023-01-27T02:35:57.499Z,0.85
2023-01-27T02:38:28.390Z,0.87
2023-01-27T02:41:03.459Z,0.86
2023-01-27T02:43:32.094Z,0.87
2023-01-27T02:46:00.650Z,0.86
2023-01-27T02:48:29.291Z,0.89
2023-01-27T02:50:59.928Z,0.89
2023-01-27T02:53:30.627Z,0.89
2023-01-27T02:56:00.250Z,0.90
2023-01-27T02:58:28.764Z,0.91
2023-01-27T03:01:02.712Z,0.90
2023-01-27T03:03:31.342Z,0.91
2023-01-27T03:06:00.657Z,0.93
2023-01-27T03:08:29.552Z,0.93
2023-01-27T03:10:59.393Z,0.94
2023-01-27T03:13:29.850Z,0.94
2023-01-27T03:16:17.819Z,0.95
2023-01-27T03:18:47.421Z,0.95
2023-01-27T03:21:17.277Z,0.97
2023-01-27T03:23:49.022Z,0.97
2023-01-27T03:26:23.229Z,0.99
2023-01-27T03:29:10.447Z,0.99
2023-01-27T03:31:42.399Z,0.98
2023-01-27T03:34:12.004Z,0.98
2023-01-27T03:37:07.007Z,0.98
2023-01-27T03:39:53.465Z,0.98
2023-01-27T03:42:40.881Z,0.98
2023-01-27T03:45:28.640Z,0.99
2023-01-27T03:47:57.189Z,0.99
2023-01-27T03:50:37.486Z,0.98
2023-01-27T03:53:07.056Z,0.99
2023-01-27T03:55:39.551Z,0.99
2023-01-27T03:58:21.126Z,0.98
2023-01-27T04:00:52.914Z,0.98
2023-01-27T04:03:40.798Z,0.96
2023-01-27T04:06:29.298Z,0.98
2023-01-27T04:08:58.711Z,0.98
2023-01-27T04:11:44.974Z,0.99
2023-01-27T04:14:14.805Z,0.96
2023-01-27T04:16:43.419Z,0.98
2023-01-27T04:19:13.359Z,0.99
2023-01-27T04:21:42.242Z,1.00
2023-01-27T04:24:22.451Z,1.00
2023-01-27T04:26:55.313Z,0.99
2023-01-27T04:29:27.899Z,0.99
2023-01-27T04:31:58.666Z,1.01
2023-01-27T04:34:28.345Z,1.02
2023-01-27T04:36:57.684Z,1.03
2023-01-27T04:39:26.661Z,1.03
2023-01-27T04:41:56.538Z,1.03
2023-01-27T04:44:26.481Z,1.02
2023-01-27T04:46:55.754Z,1.01
2023-01-27T04:49:26.588Z,1.02
2023-01-27T04:51:55.224Z,1.04
2023-01-27T04:54:23.908Z,1.04
2023-01-27T04:57:00.456Z,1.03
2023-01-27T04:59:30.092Z,1.06
2023-01-27T05:01:59.213Z,1.07
2023-01-27T05:04:27.815Z,1.07
2023-01-27T05:06:56.107Z,1.07
2023-01-27T05:09:25.014Z,1.08
2023-01-27T05:11:53.561Z,1.09
2023-01-27T05:14:23.459Z,1.11
2023-01-27T05:16:53.288Z,1.11
2023-01-27T05:19:21.792Z,1.13
2023-01-27T05:21:50.286Z,1.13
2023-01-27T05:24:18.887Z,1.14
2023-01-27T05:26:47.584Z,1.16
2023-01-27T05:29:15.849Z,1.16
2023-01-27T05:31:44.429Z,1.18
2023-01-27T05:34:14.028Z,1.18
2023-01-27T05:36:42.261Z,1.17
2023-01-27T05:39:12.513Z,1.18
2023-01-27T05:41:41.089Z,1.17
2023-01-27T05:44:12.557Z,1.17
2023-01-27T05:46:42.539Z,1.17
2023-01-27T05:49:10.881Z,1.18
2023-01-27T05:51:41.664Z,1.18
2023-01-27T05:54:10.563Z,1.19
2023-01-27T05:56:39.223Z,1.20
2023-01-27T05:59:08.351Z,1.21
2023-01-27T06:01:37.547Z,1.21
2023-01-27T06:04:06.553Z,1.22
2023-01-27T06:06:35.411Z,1.23
2023-01-27T06:09:05.509Z,1.23
2023-01-27T06:11:34.036Z,1.24
2023-01-27T06:14:02.235Z,1.24
2023-01-27T06:16:30.762Z,1.23
2023-01-27T06:18:59.728Z,1.23
2023-01-27T06:21:28.301Z,1.23
2023-01-27T06:23:58.041Z,1.24
2023-01-27T06:26:27.719Z,1.25
2023-01-27T06:28:58.215Z,1.26
2023-01-27T06:31:27.467Z,1.26
2023-01-27T06:33:56.077Z,1.26
2023-01-27T06:36:24.882Z,1.27
2023-01-27T06:38:53.485Z,1.28
2023-01-27T06:41:22.200Z,1.27
2023-01-27T06:43:51.792Z,1.27
2023-01-27T06:46:20.029Z,1.28
2023-01-27T06:48:48.601Z,1.26
2023-01-27T06:51:17.596Z,1.27
2023-01-27T06:53:46.130Z,1.25
2023-01-27T06:56:16.471Z,1.26
2023-01-27T06:58:45.864Z,1.26
2023-01-27T07:01:15.506Z,1.28
2023-01-27T07:03:45.117Z,1.29
2023-01-27T07:06:15.073Z,1.33
2023-01-27T07:08:45.806Z,1.34
2023-01-27T07:11:14.324Z,1.34
2023-01-27T07:13:42.820Z,1.36
2023-01-27T07:16:11.352Z,1.37
2023-01-27T07:18:40.931Z,1.38
2023-01-27T07:21:09.153Z,1.39
2023-01-27T07:23:37.360Z,1.41
2023-01-27T07:26:19.273Z,1.42
2023-01-27T07:28:53.279Z,1.43
2023-01-27T07:31:21.850Z,1.43
2023-01-27T07:33:51.586Z,1.43
2023-01-27T07:36:20.138Z,1.44
2023-01-27T07:38:52.002Z,1.44
2023-01-27T07:41:22.879Z,1.44
2023-01-27T07:43:52.442Z,1.43
2023-01-27T07:46:21.118Z,1.45
2023-01-27T07:48:51.011Z,1.49
2023-01-27T07:51:19.724Z,1.52
2023-01-27T07:53:47.992Z,1.56
2023-01-27T07:56:16.236Z,1.62
2023-01-27T07:58:44.669Z,1.69
2023-01-27T08:01:14.158Z,1.77
2023-01-27T08:03:42.673Z,1.83
2023-01-27T08:06:14.078Z,1.92
2023-01-27T08:08:42.721Z,2.01
2023-01-27T08:11:15.215Z,2.13
2023-01-27T08:13:43.923Z,2.18
2023-01-27T08:16:15.207Z,2.22
2023-01-27T08:18:43.956Z,2.25
2023-01-27T08:21:15.005Z,2.30
2023-01-27T08:23:43.298Z,2.34
2023-01-27T08:26:11.538Z,2.39
2023-01-27T08:28:41.401Z,2.44
2023-01-27T08:31:12.314Z,2.49
2023-01-27T08:33:42.557Z,2.53
2023-01-27T08:36:15.414Z,2.56
2023-01-27T08:38:45.325Z,2.60
2023-01-27T08:41:16.997Z,2.63
2023-01-27T08:43:46.132Z,2.65
2023-01-27T08:46:15.451Z,2.67
2023-01-27T08:48:44.392Z,2.66
2023-01-27T08:51:15.409Z,2.64
2023-01-27T08:53:44.184Z,2.62
2023-01-27T08:56:15.785Z,2.59
2023-01-27T08:58:47.236Z,2.57
2023-01-27T09:01:17.067Z,2.54
2023-01-27T09:03:45.766Z,2.50
2023-01-27T09:06:16.930Z,2.47
2023-01-27T09:09:06.076Z,2.45
2023-01-27T09:11:34.782Z,2.39
2023-01-27T09:14:03.011Z,2.38
2023-01-27T09:16:31.584Z,2.39
2023-01-27T09:19:00.171Z,2.40
2023-01-27T09:21:29.902Z,2.44
2023-01-27T09:23:59.081Z,2.44
2023-01-27T09:26:27.404Z,2.46
2023-01-27T09:28:55.891Z,2.47
2023-01-27T09:31:24.560Z,2.46
2023-01-27T09:33:53.182Z,2.46
2023-01-27T09:36:23.035Z,2.49
2023-01-27T09:38:59.857Z,2.51
2023-01-27T09:42:17.260Z,2.52
2023-01-27T09:45:30.967Z,2.51
2023-01-27T09:48:24.398Z,2.56
2023-01-27T09:51:03.275Z,2.60
2023-01-27T09:53:59.397Z,2.63
2023-01-27T09:56:41.269Z,2.62
2023-01-27T09:59:31.759Z,2.65
2023-01-27T10:02:11.648Z,2.67
2023-01-27T10:05:20.781Z,2.70
2023-01-27T10:08:40.220Z,2.73
2023-01-27T10:11:19.900Z,2.78
2023-01-27T10:14:06.758Z,2.80
2023-01-27T10:17:07.973Z,2.80
2023-01-27T10:19:55.823Z,2.81
2023-01-27T10:22:37.440Z,2.83
2023-01-27T10:25:24.100Z,2.82
2023-01-27T10:27:58.604Z,2.83
2023-01-27T10:30:33.920Z,2.82
2023-01-27T10:33:08.440Z,2.84
2023-01-27T10:35:48.903Z,2.87
2023-01-27T10:38:33.297Z,2.97
2023-01-27T10:41:12.851Z,3.07
2023-01-27T10:44:01.597Z,3.17
2023-01-27T10:46:43.145Z,3.26
2023-01-27T10:49:23.301Z,3.33
2023-01-27T10:51:58.681Z,3.38
2023-01-27T10:54:36.961Z,3.46
2023-01-27T10:57:11.355Z,3.51
2023-01-27T11:00:10.898Z,3.57
2023-01-27T11:02:45.722Z,3.64
2023-01-27T11:05:22.035Z,3.69
2023-01-27T11:07:59.577Z,3.76
2023-01-27T11:10:37.433Z,3.83
2023-01-27T11:13:08.032Z,3.91
2023-01-27T11:15:38.917Z,3.96
2023-01-27T11:18:15.933Z,4.00
2023-01-27T11:20:48.025Z,4.03
2023-01-27T11:23:20.656Z,4.06
2023-01-27T11:25:56.923Z,4.09
2023-01-27T11:28:33.908Z,4.16
2023-01-27T11:31:15.096Z,4.21
2023-01-27T11:33:58.047Z,4.31
2023-01-27T11:36:26.881Z,4.42
2023-01-27T11:38:57.982Z,4.50
2023-01-27T11:41:26.952Z,4.55
2023-01-27T11:43:55.272Z,4.56
2023-01-27T11:46:25.791Z,4.56
2023-01-27T11:48:58.628Z,4.55
2023-01-27T11:51:33.400Z,4.52
2023-01-27T11:54:10.991Z,4.47
2023-01-27T11:56:40.694Z,4.43
2023-01-27T11:59:14.733Z,4.40
2023-01-27T12:01:50.826Z,4.37
2023-01-27T12:04:45.257Z,4.32
2023-01-27T12:07:20.302Z,4.32
2023-01-27T12:09:48.742Z,4.30
2023-01-27T12:12:26.284Z,4.25
2023-01-27T12:14:57.739Z,4.20
2023-01-27T12:17:34.698Z,4.15
2023-01-27T12:20:09.626Z,4.09
2023-01-27T12:22:41.119Z,4.06
2023-01-27T12:25:20.911Z,4.03
2023-01-27T12:27:53.680Z,4.04
2023-01-27T12:30:25.801Z,4.08
2023-01-27T12:32:56.566Z,4.08
2023-01-27T12:35:29.038Z,4.07
2023-01-27T12:38:02.065Z,4.07
2023-01-27T12:40:33.268Z,4.10
2023-01-27T12:43:12.715Z,4.18
2023-01-27T12:45:43.300Z,4.28
2023-01-27T12:48:23.067Z,4.35
2023-01-27T12:51:07.805Z,4.44
2023-01-27T12:53:36.053Z,4.52
2023-01-27T12:56:14.536Z,4.64
2023-01-27T12:58:45.373Z,4.88
2023-01-27T13:01:27.236Z,5.03
2023-01-27T13:04:01.343Z,5.10
2023-01-27T13:06:42.124Z,5.19
2023-01-27T13:09:28.736Z,5.35
2023-01-27T13:12:00.944Z,5.46
2023-01-27T13:14:31.733Z,5.51
2023-01-27T13:17:00.083Z,5.53
2023-01-27T13:19:44.177Z,5.59
2023-01-27T13:22:20.726Z,5.61
2023-01-27T13:24:52.936Z,5.61
2023-01-27T13:27:23.035Z,5.59
2023-01-27T13:30:04.493Z,5.55
2023-01-27T13:32:37.876Z,5.52
2023-01-27T13:35:19.890Z,5.55
2023-01-27T13:38:03.114Z,5.55
2023-01-27T13:40:36.183Z,5.65
2023-01-27T13:43:14.628Z,5.75
2023-01-27T13:45:49.020Z,5.75
2023-01-27T13:48:23.437Z,5.83
2023-01-27T13:51:04.399Z,6.00
2023-01-27T13:53:33.076Z,6.22
2023-01-27T13:56:18.495Z,6.29
2023-01-27T13:59:01.314Z,6.31
2023-01-27T14:01:43.825Z,6.28
2023-01-27T14:04:29.908Z,6.25
2023-01-27T14:07:13.325Z,6.14
2023-01-27T14:09:55.517Z,6.02
2023-01-27T14:12:39.490Z,5.89
2023-01-27T14:15:24.221Z,5.76
2023-01-27T14:18:00.549Z,5.66
2023-01-27T14:21:03.726Z,5.55
2023-01-27T14:23:49.235Z,5.40
2023-01-27T14:26:37.196Z,5.30
2023-01-27T14:29:20.250Z,5.21
2023-01-27T14:31:59.114Z,5.14
2023-01-27T14:34:55.084Z,5.02
2023-01-27T14:37:31.391Z,4.95
2023-01-27T14:40:17.479Z,4.90
2023-01-27T14:43:01.849Z,4.84
2023-01-27T14:45:35.597Z,4.79
2023-01-27T14:48:16.349Z,4.76
2023-01-27T14:50:53.360Z,4.74
2023-01-27T14:53:44.515Z,4.72
2023-01-27T14:56:24.912Z,4.70
2023-01-27T14:59:05.468Z,4.68
2023-01-27T15:01:45.234Z,4.66
2023-01-27T15:04:37.620Z,4.61
2023-01-27T15:07:17.050Z,4.58
2023-01-27T15:10:21.644Z,4.54
2023-01-27T15:13:39.332Z,4.50
2023-01-27T15:16:30.833Z,4.47
2023-01-27T15:19:29.359Z,4.43
2023-01-27T15:22:41.966Z,4.41
2023-01-27T15:25:33.215Z,4.40
2023-01-27T15:28:02.958Z,4.39
2023-01-27T15:30:34.904Z,4.38
2023-01-27T15:33:03.968Z,4.38
2023-01-27T15:35:41.072Z,4.38
2023-01-27T15:38:35.701Z,4.35
2023-01-27T15:41:10.808Z,4.35
2023-01-27T15:43:44.027Z,4.36
2023-01-27T15:46:34.261Z,4.34
2023-01-27T15:49:05.013Z,4.35
2023-01-27T15:51:38.475Z,4.34
2023-01-27T15:54:12.579Z,4.34
2023-01-27T15:56:52.153Z,4.33
2023-01-27T15:59:25.996Z,4.33
2023-01-27T16:02:17.532Z,4.28
2023-01-27T16:04:53.509Z,4.29
2023-01-27T16:07:29.700Z,4.28
2023-01-27T16:09:59.820Z,4.27
2023-01-27T16:12:39.493Z,4.25
2023-01-27T16:15:35.461Z,4.23
2023-01-27T16:18:27.944Z,4.23
2023-01-27T16:21:03.178Z,4.22
2023-01-27T16:23:44.001Z,4.21
2023-01-27T16:26:32.737Z,4.18
2023-01-27T16:29:30.988Z,4.17
2023-01-27T16:32:07.633Z,4.17
2023-01-27T16:34:42.768Z,4.15
2023-01-27T16:37:24.801Z,4.12
2023-01-27T16:40:01.978Z,4.11
2023-01-27T16:42:34.956Z,4.09
2023-01-27T16:45:17.719Z,4.09
2023-01-27T16:47:51.009Z,4.08
2023-01-27T16:50:39.111Z,4.06
2023-01-27T16:53:15.064Z,4.05
2023-01-27T16:55:43.757Z,4.05
2023-01-27T16:58:24.398Z,4.03
2023-01-27T17:00:55.574Z,4.01
2023-01-27T17:03:37.261Z,4.01
2023-01-27T17:06:14.436Z,4.00
2023-01-27T17:08:46.023Z,3.99
2023-01-27T17:11:25.292Z,3.99
2023-01-27T17:14:01.292Z,3.99
2023-01-27T17:16:34.112Z,3.99
2023-01-27T17:19:15.712Z,3.98
2023-01-27T17:21:50.393Z,3.99
2023-01-27T17:24:20.953Z,3.96
2023-01-27T17:26:56.895Z,3.94
2023-01-27T17:29:33.146Z,3.95
2023-01-27T17:32:02.155Z,3.96
2023-01-27T17:34:31.085Z,3.96
2023-01-27T17:37:13.432Z,3.98
2023-01-27T17:39:42.064Z,3.97
2023-01-27T17:42:16.795Z,3.98
2023-01-27T17:44:45.552Z,3.99
2023-01-27T17:47:16.069Z,3.98
2023-01-27T17:49:45.584Z,3.99
2023-01-27T17:52:20.887Z,4.00
2023-01-27T17:54:51.409Z,4.00
2023-01-27T17:57:23.366Z,4.01
2023-01-27T18:00:01.485Z,4.00
2023-01-27T18:02:32.863Z,4.01
2023-01-27T18:05:05.666Z,4.00
2023-01-27T18:07:35.406Z,4.01
2023-01-27T18:10:24.566Z,3.99
2023-01-27T18:12:53.088Z,4.00
2023-01-27T18:15:40.806Z,3.99
2023-01-27T18:18:25.586Z,3.99
2023-01-27T18:21:06.421Z,3.99
2023-01-27T18:23:38.636Z,3.99
2023-01-27T18:26:14.897Z,3.99
2023-01-27T18:28:45.410Z,4.00
2023-01-27T18:31:18.386Z,4.00
2023-01-27T18:33:47.295Z,4.00
2023-01-27T18:36:24.647Z,3.99
2023-01-27T18:38:54.409Z,3.98
2023-01-27T18:41:28.961Z,3.98
2023-01-27T18:43:57.320Z,3.95
2023-01-27T18:46:26.973Z,3.93
2023-01-27T18:48:56.616Z,3.94
2023-01-27T18:51:25.090Z,3.96
2023-01-27T18:53:54.726Z,3.95
2023-01-27T18:56:23.229Z,3.96
2023-01-27T18:58:54.031Z,3.96
2023-01-27T19:01:24.899Z,3.95
2023-01-27T19:03:57.135Z,3.95
2023-01-27T19:06:26.577Z,3.96
2023-01-27T19:08:56.117Z,3.95
2023-01-27T19:11:24.649Z,3.97
2023-01-27T19:13:52.843Z,3.97
2023-01-27T19:16:21.278Z,3.97
2023-01-27T19:18:49.967Z,3.96
2023-01-27T19:21:18.367Z,3.96
2023-01-27T19:23:49.309Z,3.97
2023-01-27T19:26:20.792Z,3.98
2023-01-27T19:28:53.231Z,3.98
2023-01-27T19:31:22.608Z,3.97
2023-01-27T19:33:51.214Z,3.99
2023-01-27T19:36:26.097Z,3.99
2023-01-27T19:39:00.837Z,3.99
2023-01-27T19:41:30.462Z,4.00
2023-01-27T19:43:58.921Z,4.00
2023-01-27T19:46:27.699Z,4.01
2023-01-27T19:48:55.905Z,4.01
2023-01-27T19:51:24.568Z,4.00
2023-01-27T19:53:53.048Z,4.01
2023-01-27T19:56:24.151Z,4.00
2023-01-27T19:58:54.830Z,4.01
2023-01-27T20:01:26.853Z,3.99
2023-01-27T20:03:55.889Z,4.00
2023-01-27T20:06:26.616Z,3.97
2023-01-27T20:08:56.812Z,3.97
2023-01-27T20:11:35.383Z,3.94
2023-01-27T20:14:08.603Z,3.92
2023-01-27T20:16:37.237Z,3.90
2023-01-27T20:19:05.565Z,3.89
2023-01-27T20:21:34.484Z,3.88
2023-01-27T20:24:03.571Z,3.87
2023-01-27T20:26:32.551Z,3.87
2023-01-27T20:29:01.300Z,3.86
2023-01-27T20:31:31.007Z,3.83
2023-01-27T20:34:00.790Z,3.83
2023-01-27T20:36:29.002Z,3.84
2023-01-27T20:38:57.216Z,3.83
2023-01-27T20:41:26.104Z,3.84
2023-01-27T20:44:00.245Z,3.84
2023-01-27T20:46:31.005Z,3.84
2023-01-27T20:49:00.317Z,3.83
2023-01-27T20:51:28.683Z,3.83
2023-01-27T20:53:58.062Z,3.85
2023-01-27T20:56:26.549Z,3.84
2023-01-27T20:58:55.187Z,3.84
2023-01-27T21:01:25.150Z,3.83
2023-01-27T21:03:54.876Z,3.81
2023-01-27T21:06:23.846Z,3.81
2023-01-27T21:08:52.357Z,3.81
2023-01-27T21:11:21.529Z,3.80
2023-01-27T21:13:50.249Z,3.79
2023-01-27T21:16:18.770Z,3.79
2023-01-27T21:18:47.419Z,3.77
2023-01-27T21:21:24.012Z,3.75
2023-01-27T21:23:52.805Z,3.75
2023-01-27T21:26:21.464Z,3.74
2023-01-27T21:28:50.133Z,3.73
2023-01-27T21:31:22.210Z,3.72
2023-01-27T21:33:51.096Z,3.70
2023-01-27T21:36:20.674Z,3.70
2023-01-27T21:38:50.403Z,3.69
2023-01-27T21:41:45.763Z,3.69
2023-01-27T21:44:43.769Z,3.66
2023-01-27T21:47:14.663Z,3.65
2023-01-27T21:50:04.286Z,3.66
2023-01-27T21:52:39.041Z,3.67
2023-01-27T21:55:10.267Z,3.68
2023-01-27T21:57:38.858Z,3.68
2023-01-27T22:00:10.352Z,3.69
2023-01-27T22:02:41.851Z,3.70
2023-01-27T22:05:11.739Z,3.71
2023-01-27T22:07:41.671Z,3.71
2023-01-27T22:10:16.071Z,3.70
2023-01-27T22:12:44.911Z,3.69
2023-01-27T22:15:15.842Z,3.69
2023-01-27T22:17:45.067Z,3.67
2023-01-27T22:20:15.322Z,3.66
2023-01-27T22:22:46.286Z,3.65
2023-01-27T22:25:17.141Z,3.63
2023-01-27T22:27:46.943Z,3.63
2023-01-27T22:30:17.603Z,3.60
2023-01-27T22:32:46.884Z,3.60
2023-01-27T22:35:17.729Z,3.59
2023-01-27T22:37:49.041Z,3.58
2023-01-27T22:40:18.266Z,3.58
2023-01-27T22:42:48.532Z,3.59
2023-01-27T22:45:17.749Z,3.57
2023-01-27T22:47:46.346Z,3.58
2023-01-27T22:50:14.634Z,3.59
2023-01-27T22:52:43.177Z,3.59
2023-01-27T22:55:14.371Z,3.60
2023-01-27T22:57:45.416Z,3.58
2023-01-27T23:00:14.594Z,3.59
2023-01-27T23:02:43.184Z,3.57
2023-01-27T23:05:12.250Z,3.57
2023-01-27T23:07:40.969Z,3.57
2023-01-27T23:10:12.324Z,3.57
2023-01-27T23:12:40.655Z,3.56
2023-01-27T23:15:10.026Z,3.55
2023-01-27T23:17:38.467Z,3.55
2023-01-27T23:20:08.779Z,3.54
2023-01-27T23:22:37.300Z,3.53
2023-01-27T23:25:06.688Z,3.52
2023-01-27T23:27:36.781Z,3.52
2023-01-27T23:30:08.999Z,3.51
2023-01-27T23:32:38.049Z,3.51
2023-01-27T23:35:07.163Z,3.51
2023-01-27T23:37:36.019Z,3.51
2023-01-27T23:40:04.821Z,3.51
2023-01-27T23:42:33.557Z,3.51
2023-01-27T23:45:03.188Z,3.50
2023-01-27T23:47:31.853Z,3.51
2023-01-27T23:50:00.042Z,3.51
2023-01-27T23:52:30.208Z,3.51
2023-01-27T23:54:58.680Z,3.50
2023-01-27T23:57:27.163Z,3.50
2023-01-27T23:59:55.666Z,3.50
